Time;durP1;ratioP1;P1;durP2;ratioP2;P2;SDS_P1;SDS_P2;PMS_P1;PMS_P2;Temp;Humidity;BMP_temperature;BMP_pressure;BME280_temperature;BME280_humidity;BME280_pressure;Samples;Min_cycle;Max_cycle;Signal;HPM_P1;HPM_P2
2023/01/15 00:00:22;;;;;;;6.97;1.20;;;;;;;6.38;100.00;99612.13;1043996;28;20306;-79
2023/01/15 00:00:54;;;;;;;5.65;0.90;;;;;;;6.35;100.00;99609.13;1045660;28;20297;-79
2023/01/15 00:01:30;;;;;;;8.93;1.58;;;;;;;6.32;100.00;99615.66;1043208;28;20296;-79
2023/01/15 00:02:01;;;;;;;7.53;1.20;;;;;;;6.31;100.00;99614.06;1044206;28;20370;-79
2023/01/15 00:02:33;;;;;;;9.20;1.15;;;;;;;6.32;100.00;99607.72;1043403;28;20808;-79
2023/01/15 00:03:05;;;;;;;10.80;3.38;;;;;;;6.28;100.00;99606.53;1039828;28;20344;-79
2023/01/15 00:03:36;;;;;;;4.63;1.42;;;;;;;6.35;100.00;99609.94;1044099;28;20304;-79
2023/01/15 00:04:11;;;;;;;5.35;1.10;;;;;;;6.37;100.00;99605.25;1043991;28;20303;-79
2023/01/15 00:04:42;;;;;;;6.55;0.93;;;;;;;6.32;100.00;99599.78;1036194;28;20714;-79
2023/01/15 00:05:14;;;;;;;9.18;1.90;;;;;;;6.30;100.00;99603.66;1039588;28;20296;-79
2023/01/15 00:05:45;;;;;;;5.03;1.23;;;;;;;6.27;100.00;99604.91;1043135;28;20292;-79
2023/01/15 00:06:18;;;;;;;4.75;0.95;;;;;;;6.34;100.00;99600.38;1043804;28;20318;-77
2023/01/15 00:06:49;;;;;;;5.82;1.33;;;;;;;6.31;100.00;99606.13;1047623;28;20298;-77
2023/01/15 00:07:21;;;;;;;6.28;1.73;;;;;;;6.25;100.00;99601.69;1047492;28;20302;-77
2023/01/15 00:07:53;;;;;;;12.75;3.67;;;;;;;6.29;100.00;99608.13;1047612;28;20318;-77
2023/01/15 00:08:24;;;;;;;6.00;1.27;;;;;;;6.25;100.00;99601.69;1047866;28;20298;-77
2023/01/15 00:08:56;;;;;;;15.68;2.42;;;;;;;6.28;100.00;99606.53;1047803;28;20295;-77
2023/01/15 00:09:27;;;;;;;3.95;1.05;;;;;;;6.28;100.00;99606.53;1047053;28;20478;-77
2023/01/15 00:09:59;;;;;;;5.10;0.82;;;;;;;6.29;100.00;99602.84;1047960;28;20283;-77
2023/01/15 00:10:31;;;;;;;6.60;1.13;;;;;;;6.35;100.00;99604.66;1047496;28;20298;-77
2023/01/15 00:11:03;;;;;;;9.02;2.35;;;;;;;6.30;100.00;99598.38;1043757;28;20311;-77
2023/01/15 00:11:35;;;;;;;6.40;1.73;;;;;;;6.29;100.00;99602.84;1043722;28;20291;-77
2023/01/15 00:12:07;;;;;;;3.78;1.35;;;;;;;6.31;100.00;99600.81;1039218;28;20304;-77
2023/01/15 00:12:39;;;;;;;6.93;2.22;;;;;;;6.27;100.00;99604.09;1036075;28;20366;-77
2023/01/15 00:13:11;;;;;;;6.00;1.00;;;;;;;6.25;100.00;99601.69;1035039;28;20293;-79
2023/01/15 00:13:42;;;;;;;4.03;0.93;;;;;;;6.24;100.00;99605.34;1039420;28;20308;-77
2023/01/15 00:14:14;;;;;;;12.57;1.40;;;;;;;6.26;100.00;99603.28;1031672;28;20309;-77
2023/01/15 00:14:45;;;;;;;9.60;0.93;;;;;;;6.25;100.00;99609.59;1039516;28;20299;-78
2023/01/15 00:15:17;;;;;;;13.35;1.45;;;;;;;6.27;100.00;99604.09;1039730;28;20302;-78
2023/01/15 00:15:49;;;;;;;6.72;1.27;;;;;;;6.26;100.00;99613.06;1044041;28;20677;-79
2023/01/15 00:16:22;;;;;;;5.30;1.60;;;;;;;6.26;100.00;99607.78;1047571;28;20796;-78
2023/01/15 00:16:57;;;;;;;8.77;1.17;;;;;;;6.25;100.00;99606.97;1043628;28;20727;-77
2023/01/15 00:17:28;;;;;;;9.73;1.10;;;;;;;6.24;100.00;99609.81;1043223;28;20840;-77
2023/01/15 00:18:00;;;;;;;6.22;1.10;;;;;;;6.29;100.00;99605.50;1040311;28;20319;-77
2023/01/15 00:18:33;;;;;;;4.43;1.08;;;;;;;6.30;100.00;99604.50;1040213;28;20821;-77
2023/01/15 00:19:07;;;;;;;8.00;1.35;;;;;;;6.23;100.00;99600.28;1036883;28;20300;-77
2023/01/15 00:19:38;;;;;;;3.33;0.82;;;;;;;6.18;100.00;99595.66;1035171;28;20292;-77
2023/01/15 00:20:10;;;;;;;8.32;1.92;;;;;;;6.18;100.00;99607.03;1031871;28;20479;-77
2023/01/15 00:20:42;;;;;;;7.28;1.20;;;;;;;6.27;100.00;99604.09;1032456;28;20384;-77
2023/01/15 00:21:14;;;;;;;6.15;0.95;;;;;;;6.22;100.00;99604.75;1031935;28;20636;-77
2023/01/15 00:21:45;;;;;;;8.73;1.58;;;;;;;6.19;100.00;99602.56;1035574;28;20301;-77
2023/01/15 00:22:17;;;;;;;8.82;1.80;;;;;;;6.22;100.00;99612.69;1040033;28;20296;-79
2023/01/15 00:22:48;;;;;;;6.47;0.85;;;;;;;6.18;100.00;99607.03;1043389;28;20300;-79
2023/01/15 00:27:37;;;;;;;18.05;4.13;;;;;;;6.16;100.00;99603.00;1043479;28;20299;-79
2023/01/15 00:27:39;;;;;;;8.98;0.98;;;;;;;6.19;100.00;99613.13;1043144;28;20805;-79
2023/01/15 00:28:13;;;;;;;4.47;1.38;;;;;;;6.16;100.00;99613.56;1039788;28;20335;-79
2023/01/15 00:28:47;;;;;;;4.50;0.95;;;;;;;6.16;100.00;99613.56;1046591;28;20295;-77
2023/01/15 00:29:20;;;;;;;4.95;0.50;;;;;;;6.21;100.00;99621.66;1042907;28;20306;-77
2023/01/15 00:29:52;;;;;;;10.05;2.03;;;;;;;6.15;100.00;99615.41;1045158;28;20405;-77
2023/01/15 00:30:24;;;;;;;4.70;1.38;;;;;;;6.19;100.00;99607.84;1047402;28;20317;-77
2023/01/15 00:30:55;;;;;;;4.10;1.13;;;;;;;6.18;100.00;99622.09;1043423;28;20291;-77
2023/01/15 00:31:28;;;;;;;6.75;1.20;;;;;;;6.23;100.00;99619.59;1039342;28;20308;-77
2023/01/15 00:32:03;;;;;;;8.18;2.38;;;;;;;6.18;100.00;99612.31;1039402;28;20395;-77
2023/01/15 00:32:34;;;;;;;9.80;1.20;;;;;;;6.28;100.00;99619.75;1030111;28;20294;-77
2023/01/15 00:33:06;;;;;;;5.93;1.13;;;;;;;6.23;100.00;99614.31;1036130;28;20301;-77
2023/01/15 00:33:38;;;;;;;6.40;1.45;;;;;;;6.16;100.00;99617.03;1040352;28;20295;-77
2023/01/15 00:34:09;;;;;;;5.72;1.05;;;;;;;6.16;100.00;99624.94;1039707;28;20383;-77
2023/01/15 00:34:43;;;;;;;9.32;1.55;;;;;;;6.15;100.00;99617.25;1043281;28;20733;-77
2023/01/15 00:35:18;;;;;;;4.60;1.25;;;;;;;6.14;100.00;99620.91;1043283;28;20306;-78
2023/01/15 00:35:49;;;;;;;5.40;1.38;;;;;;;6.16;100.00;99630.25;1043158;28;20632;-77
2023/01/15 00:36:21;;;;;;;15.70;1.73;;;;;;;6.14;100.00;99619.06;1041195;28;20790;-77
2023/01/15 00:36:53;;;;;;;5.40;1.88;;;;;;;6.15;100.00;99627.81;1039129;28;20417;-77
2023/01/15 00:37:25;;;;;;;8.73;1.27;;;;;;;6.18;100.00;99622.91;1038692;28;20299;-77
2023/01/15 00:37:56;;;;;;;15.60;2.85;;;;;;;6.15;100.00;99622.53;1035940;28;20292;-77
2023/01/15 00:38:29;;;;;;;5.55;1.13;;;;;;;6.24;100.00;99623.03;1039720;28;20326;-77
2023/01/15 00:39:01;;;;;;;8.00;1.48;;;;;;;6.20;100.00;99620.03;1043364;28;20306;-77
2023/01/15 00:39:34;;;;;;;7.35;1.02;;;;;;;6.22;100.00;99619.81;1040060;28;20391;-77
2023/01/15 00:40:07;;;;;;;6.78;3.03;;;;;;;6.18;100.00;99616.81;1035115;28;20371;-77
2023/01/15 00:40:38;;;;;;;10.00;1.90;;;;;;;6.18;100.00;99622.09;1034790;28;20308;-77
2023/01/15 00:41:10;;;;;;;8.48;1.52;;;;;;;6.18;100.00;99622.91;1035095;28;21984;-77
2023/01/15 00:41:41;;;;;;;11.50;1.30;;;;;;;6.15;100.00;99625.16;1036590;28;20798;-78
2023/01/15 00:42:13;;;;;;;8.75;1.67;;;;;;;6.17;100.00;99631.03;1040463;28;20709;-79
2023/01/15 00:42:45;;;;;;;6.72;1.67;;;;;;;6.20;100.00;99628.78;1040744;28;20346;-79
2023/01/15 00:43:25;;;;;;;1.65;0.68;;;;;;;6.16;100.00;99626.78;1031725;28;20811;-79
2023/01/15 00:43:56;;;;;;;11.98;1.35;;;;;;;6.17;100.00;99626.56;1036162;28;20069;-79
2023/01/15 00:44:28;;;;;;;4.38;1.92;;;;;;;6.15;100.00;99630.47;1032872;28;20302;-79
2023/01/15 00:45:08;;;;;;;3.25;1.38;;;;;;;6.12;100.00;99625.59;1035970;28;20305;-80
2023/01/15 00:45:40;;;;;;;10.07;1.27;;;;;;;6.16;100.00;99629.44;1039143;28;20307;-79
2023/01/15 00:46:12;;;;;;;12.43;1.30;;;;;;;6.07;100.00;99625.47;1041012;28;20643;-80
2023/01/15 00:46:44;;;;;;;5.22;1.30;;;;;;;6.12;100.00;99622.97;1039219;28;20389;-79
2023/01/15 00:47:16;;;;;;;7.85;2.47;;;;;;;6.12;100.00;99623.78;1045207;28;20345;-79
2023/01/15 00:47:49;;;;;;;9.32;1.63;;;;;;;6.13;100.00;99621.94;1043272;28;20306;-79
2023/01/15 00:48:21;;;;;;;5.05;0.70;;;;;;;6.09;100.00;99623.41;1033663;28;20277;-80
2023/01/15 00:48:52;;;;;;;8.18;1.45;;;;;;;6.07;100.00;99620.16;1037651;28;20300;-79
2023/01/15 00:49:25;;;;;;;8.02;1.45;;;;;;;6.02;100.00;99622.63;1041499;28;20296;-80
2023/01/15 00:49:57;;;;;;;5.82;1.95;;;;;;;6.07;100.00;99630.75;1046280;28;20299;-80
2023/01/15 00:50:29;;;;;;;21.60;5.00;;;;;;;6.06;100.00;99629.13;1047911;28;20298;-79
2023/01/15 00:51:03;;;;;;;7.57;1.13;;;;;;;6.07;100.00;99625.47;1044230;28;20693;-79
2023/01/15 00:51:35;;;;;;;9.35;2.42;;;;;;;6.09;100.00;99618.13;1043218;28;20851;-79
2023/01/15 00:52:07;;;;;;;8.02;1.88;;;;;;;6.08;100.00;99616.50;1036841;28;20430;-80
2023/01/15 00:52:39;;;;;;;12.82;5.03;;;;;;;6.07;100.00;99620.16;1040084;28;20296;-79
2023/01/15 00:53:10;;;;;;;5.85;1.10;;;;;;;6.07;100.00;99617.53;1040597;28;20855;-79
2023/01/15 00:53:42;;;;;;;7.78;2.00;;;;;;;6.08;100.00;99616.50;1043978;28;20299;-79
2023/01/15 00:54:13;;;;;;;4.55;1.33;;;;;;;6.07;100.00;99620.16;1045567;28;20802;-79
2023/01/15 00:54:47;;;;;;;5.13;0.85;;;;;;;6.13;100.00;99619.28;1047118;28;20819;-79
2023/01/15 00:55:18;;;;;;;8.63;1.90;;;;;;;6.18;100.00;99619.44;1047574;28;20299;-80
2023/01/15 00:55:50;;;;;;;7.22;1.65;;;;;;;6.18;100.00;99622.09;1047913;28;20286;-80
2023/01/15 00:56:22;;;;;;;9.45;1.17;;;;;;;6.17;100.00;99620.47;1044651;28;20314;-79
2023/01/15 00:56:53;;;;;;;4.18;1.58;;;;;;;6.10;100.00;99617.91;1040275;28;20288;-80
2023/01/15 00:57:25;;;;;;;12.52;1.20;;;;;;;6.16;100.00;99618.84;1035995;28;20296;-80
2023/01/15 00:57:56;;;;;;;3.40;0.80;;;;;;;6.10;100.00;99620.53;1034491;28;20807;-79
2023/01/15 00:58:28;;;;;;;8.30;1.55;;;;;;;6.17;100.00;99615.19;1035115;28;20308;-79
2023/01/15 00:59:01;;;;;;;3.75;1.10;;;;;;;6.18;100.00;99624.72;1033405;28;20293;-79
2023/01/15 00:59:33;;;;;;;5.47;2.03;;;;;;;6.20;100.00;99625.31;1041946;28;20724;-79
2023/01/15 01:00:05;;;;;;;4.82;1.20;;;;;;;6.18;100.00;99622.09;1041052;28;20390;-79
2023/01/15 01:00:37;;;;;;;9.63;1.45;;;;;;;6.21;100.00;99621.66;1048823;28;20854;-79
2023/01/15 01:01:08;;;;;;;10.77;2.45;;;;;;;6.17;100.00;99623.13;1049132;28;20298;-79
2023/01/15 01:01:40;;;;;;;8.15;1.58;;;;;;;6.17;100.00;99623.13;1043560;28;20314;-77
2023/01/15 01:02:12;;;;;;;8.57;1.27;;;;;;;6.21;100.00;99626.94;1043298;28;20348;-77
2023/01/15 01:02:45;;;;;;;7.88;1.25;;;;;;;6.24;100.00;99617.75;1039452;28;20875;-77
2023/01/15 01:03:17;;;;;;;7.03;1.40;;;;;;;6.23;100.00;99618.78;1043203;28;20314;-77
2023/01/15 01:03:51;;;;;;;3.38;1.10;;;;;;;6.17;100.00;99615.19;1039767;28;20391;-77
2023/01/15 01:04:23;;;;;;;5.78;1.25;;;;;;;6.17;100.00;99620.47;1038911;28;20307;-77
2023/01/15 01:04:54;;;;;;;9.95;1.50;;;;;;;6.19;100.00;99618.41;1035348;28;20651;-77
2023/01/15 01:05:26;;;;;;;5.80;1.52;;;;;;;6.12;100.00;99620.31;1035718;28;20356;-78
2023/01/15 01:06:01;;;;;;;3.67;1.20;;;;;;;6.18;100.00;99628.19;1032144;28;20991;-77
2023/01/15 01:06:34;;;;;;;4.10;1.38;;;;;;;6.16;100.00;99629.44;1036110;28;20667;-77
2023/01/15 01:07:05;;;;;;;9.23;2.10;;;;;;;6.17;100.00;99631.84;1039321;28;20665;-77
2023/01/15 01:07:37;;;;;;;21.05;2.45;;;;;;;6.13;100.00;99627.22;1041109;28;20308;-79
2023/01/15 01:08:09;;;;;;;10.23;1.42;;;;;;;6.11;100.00;99626.63;1044204;28;20785;-79
2023/01/15 01:08:41;;;;;;;4.22;0.82;;;;;;;6.12;100.00;99633.53;1043332;28;20306;-78
2023/01/15 01:09:13;;;;;;;6.68;1.15;;;;;;;6.17;100.00;99625.75;1043077;28;20291;-78
2023/01/15 01:09:45;;;;;;;10.63;1.38;;;;;;;6.13;100.00;99624.59;1038773;28;20306;-77
2023/01/15 01:10:17;;;;;;;13.50;2.08;;;;;;;6.12;100.00;99630.91;1036710;28;20297;-77
2023/01/15 01:10:48;;;;;;;11.98;4.38;;;;;;;6.11;100.00;99632.72;1043359;28;20318;-79
2023/01/15 01:11:25;;;;;;;11.30;1.85;;;;;;;6.11;100.00;99629.28;1043643;28;20315;-79
2023/01/15 01:11:57;;;;;;;10.88;2.08;;;;;;;6.09;100.00;99628.69;1044440;28;20326;-77
2023/01/15 01:12:28;;;;;;;3.70;0.80;;;;;;;6.18;100.00;99637.94;1047538;28;20377;-77
2023/01/15 01:13:00;;;;;;;3.75;1.02;;;;;;;6.11;100.00;99635.38;1047141;28;20364;-78
2023/01/15 01:13:33;;;;;;;4.25;1.42;;;;;;;6.08;100.00;99632.34;1039877;28;20296;-77
2023/01/15 01:14:04;;;;;;;3.97;1.30;;;;;;;6.11;100.00;99638.03;1039530;28;20658;-77
2023/01/15 01:14:37;;;;;;;9.95;1.98;;;;;;;6.12;100.00;99633.53;1035110;28;20865;-77
2023/01/15 01:15:09;;;;;;;7.43;1.50;;;;;;;6.12;100.00;99638.81;1035645;28;20799;-77
2023/01/15 01:15:40;;;;;;;4.97;1.00;;;;;;;6.13;100.00;99638.59;1035609;28;20541;-77
2023/01/15 01:16:21;;;;;;;3.28;1.00;;;;;;;6.18;100.00;99637.94;1040056;28;20674;-77
2023/01/15 01:16:53;;;;;;;2.95;0.98;;;;;;;6.15;100.00;99623.34;1047635;28;20844;-77
2023/01/15 01:17:24;;;;;;;10.30;1.35;;;;;;;6.16;100.00;99634.72;1047091;28;20040;-77
2023/01/15 01:17:56;;;;;;;3.08;0.85;;;;;;;6.17;100.00;99633.69;1043658;28;20307;-77
2023/01/15 01:18:28;;;;;;;11.20;1.63;;;;;;;6.18;100.00;99637.94;1038748;28;20303;-77
2023/01/15 01:19:02;;;;;;;7.47;1.10;;;;;;;6.17;100.00;99636.34;1039971;28;20296;-77
2023/01/15 01:19:35;;;;;;;14.40;2.55;;;;;;;6.19;100.00;99640.38;1038779;28;20299;-77
2023/01/15 01:20:08;;;;;;;9.65;2.95;;;;;;;6.19;100.00;99643.03;1043845;28;20800;-79
2023/01/15 01:20:40;;;;;;;3.05;1.63;;;;;;;6.21;100.00;99642.81;1044769;28;20692;-80
2023/01/15 01:21:13;;;;;;;13.60;3.25;;;;;;;6.16;100.00;99645.28;1038716;28;20303;-80
2023/01/15 01:21:45;;;;;;;4.43;1.30;;;;;;;6.18;100.00;99640.59;1043274;28;20322;-79
2023/01/15 01:22:17;;;;;;;6.63;0.80;;;;;;;6.25;100.00;99640.53;1035159;28;20845;-79
2023/01/15 01:22:49;;;;;;;8.02;1.15;;;;;;;6.21;100.00;99637.50;1034100;28;20300;-80
2023/01/15 01:23:22;;;;;;;8.38;1.75;;;;;;;6.23;100.00;99642.59;1039028;28;20296;-79
2023/01/15 01:23:56;;;;;;;9.45;1.50;;;;;;;6.25;100.00;99637.88;1044080;28;20353;-79
2023/01/15 01:24:28;;;;;;;12.43;1.45;;;;;;;6.23;100.00;99639.94;1050273;28;20309;-79
2023/01/15 01:25:00;;;;;;;6.43;1.40;;;;;;;6.22;100.00;99643.63;1049990;28;20301;-79
2023/01/15 01:25:31;;;;;;;3.03;1.05;;;;;;;6.21;100.00;99642.81;1043470;28;20461;-80
2023/01/15 01:26:03;;;;;;;8.90;1.42;;;;;;;6.21;100.00;99637.50;1039225;28;20845;-79
2023/01/15 01:26:35;;;;;;;7.70;1.77;;;;;;;6.22;100.00;99638.31;1035439;28;20683;-79
2023/01/15 01:27:08;;;;;;;12.77;2.30;;;;;;;6.23;100.00;99640.75;1040005;28;20296;-80
2023/01/15 01:27:43;;;;;;;8.35;1.73;;;;;;;6.23;100.00;99640.75;1038708;28;20304;-79
2023/01/15 01:28:15;;;;;;;5.88;1.73;;;;;;;6.22;100.00;99639.13;1040259;28;20585;-77
2023/01/15 01:28:50;;;;;;;10.55;1.80;;;;;;;6.20;100.00;99643.84;1039333;28;20295;-77
2023/01/15 01:29:22;;;;;;;7.45;1.73;;;;;;;6.19;100.00;99648.31;1036564;28;20304;-77
2023/01/15 01:29:54;;;;;;;6.80;1.60;;;;;;;6.23;100.00;99640.75;1031711;28;20305;-77
2023/01/15 01:30:25;;;;;;;7.07;1.75;;;;;;;6.26;100.00;99639.50;1036471;28;20289;-77
2023/01/15 01:30:57;;;;;;;10.07;2.00;;;;;;;6.23;100.00;99650.53;1039816;28;20304;-77
2023/01/15 01:31:29;;;;;;;6.28;1.10;;;;;;;6.21;100.00;99648.09;1039306;28;20843;-77
2023/01/15 01:32:02;;;;;;;5.68;1.10;;;;;;;6.20;100.00;99641.19;1038887;28;20308;-77
2023/01/15 01:32:34;;;;;;;6.65;1.98;;;;;;;6.21;100.00;99648.09;1034977;28;20304;-77
2023/01/15 01:33:06;;;;;;;10.50;1.33;;;;;;;6.18;100.00;99635.31;1035771;28;20327;-77
2023/01/15 01:33:37;;;;;;;11.35;1.70;;;;;;;6.18;100.00;99637.94;1035670;28;20832;-77
2023/01/15 01:34:10;;;;;;;5.68;2.55;;;;;;;6.19;100.00;99634.28;1039753;28;20682;-79
2023/01/15 01:34:42;;;;;;;9.80;1.80;;;;;;;6.21;100.00;99632.22;1036079;28;20301;-79
2023/01/15 01:35:14;;;;;;;7.65;1.15;;;;;;;6.19;100.00;99639.56;1040345;28;20300;-79
2023/01/15 01:35:48;;;;;;;6.75;1.38;;;;;;;6.20;100.00;99636.72;1045345;28;20659;-80
2023/01/15 01:36:33;;;;;;;7.45;1.23;;;;;;;6.21;100.00;99634.88;1043629;28;20288;-79
2023/01/15 01:37:05;;;;;;;2.97;1.33;;;;;;;6.22;100.00;99639.13;1041227;28;20314;-79
2023/01/15 01:37:37;;;;;;;8.60;1.85;;;;;;;6.23;100.00;99642.59;1041474;28;20295;-79
2023/01/15 01:38:08;;;;;;;14.50;2.78;;;;;;;6.24;100.00;99639.72;1040648;28;20306;-79
2023/01/15 01:38:40;;;;;;;8.20;2.05;;;;;;;6.26;100.00;99645.59;1037596;28;20658;-79
2023/01/15 01:39:14;;;;;;;7.20;1.38;;;;;;;6.21;100.00;99640.16;1047725;28;20295;-80
2023/01/15 01:39:46;;;;;;;12.13;1.80;;;;;;;6.20;100.00;99649.13;1041942;28;20723;-79
2023/01/15 01:40:18;;;;;;;9.60;1.98;;;;;;;6.17;100.00;99660.13;1036906;28;20311;-79
2023/01/15 01:40:50;;;;;;;8.35;2.25;;;;;;;6.16;100.00;99651.38;1040754;28;20836;-78
2023/01/15 01:41:21;;;;;;;9.20;1.08;;;;;;;6.20;100.00;99646.47;1039188;28;20295;-77
2023/01/15 01:41:53;;;;;;;13.73;1.80;;;;;;;6.20;100.00;99641.19;1035524;28;20399;-77
2023/01/15 01:42:26;;;;;;;6.15;1.42;;;;;;;6.18;100.00;99648.53;1034675;28;20305;-78
2023/01/15 01:42:58;;;;;;;5.20;1.52;;;;;;;6.17;100.00;99636.34;1037455;28;20777;-77
2023/01/15 01:43:30;;;;;;;12.93;2.63;;;;;;;6.19;100.00;99640.38;1035906;28;20289;-77
2023/01/15 01:44:05;;;;;;;11.27;2.38;;;;;;;6.21;100.00;99650.75;1033068;28;20321;-77
2023/01/15 01:44:37;;;;;;;8.55;1.55;;;;;;;6.19;100.00;99644.84;1035839;28;20694;-77
2023/01/15 01:45:18;;;;;;;13.15;1.67;;;;;;;6.20;100.00;99649.13;1036564;28;20790;-77
2023/01/15 01:45:49;;;;;;;7.10;1.50;;;;;;;6.23;100.00;99650.53;1035805;28;20312;-77
2023/01/15 01:46:21;;;;;;;5.93;1.73;;;;;;;6.19;100.00;99655.44;1033761;28;20523;-77
2023/01/15 01:46:53;;;;;;;7.60;1.30;;;;;;;6.23;100.00;99639.94;1037094;28;20309;-77
2023/01/15 01:47:27;;;;;;;16.08;2.25;;;;;;;6.23;100.00;99646.03;1043913;28;20311;-77
2023/01/15 01:48:01;;;;;;;4.50;1.33;;;;;;;6.20;100.00;99647.28;1036766;28;20311;-77
2023/01/15 01:48:33;;;;;;;7.07;2.20;;;;;;;6.19;100.00;99643.03;1041242;28;20292;-77
2023/01/15 01:49:08;;;;;;;19.00;2.92;;;;;;;6.18;100.00;99644.06;1043732;28;20334;-77
2023/01/15 01:49:41;;;;;;;5.50;1.13;;;;;;;6.19;100.00;99647.50;1038095;28;20300;-77
2023/01/15 01:50:15;;;;;;;9.10;1.55;;;;;;;6.20;100.00;99638.53;1039760;28;20323;-77
2023/01/15 01:50:47;;;;;;;6.38;1.35;;;;;;;6.24;100.00;99645.00;1040190;28;20350;-78
2023/01/15 01:51:21;;;;;;;7.25;1.98;;;;;;;6.25;100.00;99646.63;1041973;28;20801;-77
2023/01/15 01:52:00;;;;;;;5.20;1.95;;;;;;;6.22;100.00;99641.78;1040396;28;20299;-77
2023/01/15 01:52:53;;;;;;;4.97;1.42;;;;;;;6.26;100.00;99642.16;1039761;28;20310;-77
2023/01/15 01:53:28;;;;;;;8.00;2.05;;;;;;;6.24;100.00;99642.38;1035326;28;20309;-78
2023/01/15 01:54:00;;;;;;;7.53;2.17;;;;;;;6.21;100.00;99642.81;1032913;28;20313;-77
2023/01/15 01:54:34;;;;;;;8.57;1.27;;;;;;;6.22;100.00;99649.72;1039736;28;20328;-79
2023/01/15 01:55:06;;;;;;;9.88;2.28;;;;;;;6.24;100.00;99642.38;1042761;28;20303;-79
2023/01/15 01:55:39;;;;;;;9.65;1.70;;;;;;;6.20;100.00;99635.91;1041728;28;20299;-79
2023/01/15 01:56:12;;;;;;;4.60;1.25;;;;;;;6.21;100.00;99648.09;1046911;28;20882;-79
2023/01/15 01:56:44;;;;;;;6.55;1.90;;;;;;;6.20;100.00;99635.91;1038243;28;20314;-79
2023/01/15 01:57:17;;;;;;;6.82;1.85;;;;;;;6.17;100.00;99636.34;1041982;28;20308;-79
2023/01/15 01:57:50;;;;;;;19.80;1.85;;;;;;;6.18;100.00;99640.59;1040804;28;20438;-79
2023/01/15 01:58:25;;;;;;;7.07;1.27;;;;;;;6.15;100.00;99649.78;1045463;28;20876;-79
2023/01/15 01:58:57;;;;;;;12.00;2.47;;;;;;;6.20;100.00;99646.47;1036125;28;20304;-79
2023/01/15 01:59:29;;;;;;;6.75;1.65;;;;;;;6.20;100.00;99646.47;1033176;28;20664;-79
2023/01/15 02:00:03;;;;;;;11.07;1.95;;;;;;;6.20;100.00;99651.75;1034675;28;20309;-79
2023/01/15 02:00:45;;;;;;;5.43;2.13;;;;;;;6.18;100.00;99649.34;1037916;28;20288;-79
2023/01/15 02:01:20;;;;;;;9.98;1.67;;;;;;;6.13;100.00;99640.44;1042330;28;20311;-79
2023/01/15 02:01:52;;;;;;;12.98;2.58;;;;;;;6.17;100.00;99638.97;1039995;28;20292;-79
2023/01/15 02:02:24;;;;;;;13.73;1.98;;;;;;;6.16;100.00;99645.28;1036482;28;20392;-79
2023/01/15 02:02:56;;;;;;;10.32;2.88;;;;;;;6.15;100.00;99639.19;1038932;28;20296;-79
2023/01/15 02:03:31;;;;;;;8.80;1.40;;;;;;;6.12;100.00;99644.13;1037162;28;20304;-79
2023/01/15 02:04:05;;;;;;;8.20;2.85;;;;;;;6.14;100.00;99647.34;1041040;28;20296;-79
2023/01/15 02:04:38;;;;;;;6.82;1.98;;;;;;;6.13;100.00;99651.03;1037978;28;20300;-79
2023/01/15 02:05:13;;;;;;;12.25;2.35;;;;;;;6.13;100.00;99659.75;1032197;28;20286;-79
2023/01/15 02:05:48;;;;;;;10.32;1.33;;;;;;;6.12;100.00;99658.13;1031552;28;20309;-79
2023/01/15 02:06:21;;;;;;;11.95;3.38;;;;;;;6.17;100.00;99668.06;1034088;28;20305;-79
2023/01/15 02:06:57;;;;;;;10.60;1.92;;;;;;;6.11;100.00;99653.06;1036802;28;20304;-79
2023/01/15 02:07:32;;;;;;;12.52;2.17;;;;;;;6.12;100.00;99652.03;1037304;28;20694;-79
2023/01/15 02:08:05;;;;;;;6.65;1.70;;;;;;;6.11;100.00;99637.22;1036217;28;20714;-79
2023/01/15 02:08:38;;;;;;;8.85;1.70;;;;;;;6.05;100.00;99653.94;1035570;28;20305;-80
2023/01/15 02:09:10;;;;;;;11.82;4.78;;;;;;;6.09;100.00;99655.94;1036830;28;20782;-79
2023/01/15 02:09:42;;;;;;;8.60;1.48;;;;;;;6.07;100.00;99647.41;1039764;28;20296;-79
2023/01/15 02:10:15;;;;;;;11.30;2.00;;;;;;;6.06;100.00;99651.09;1034739;28;20415;-79
2023/01/15 02:10:51;;;;;;;5.20;1.17;;;;;;;6.08;100.00;99661.44;1034120;28;20297;-79
2023/01/15 02:11:23;;;;;;;7.13;1.30;;;;;;;6.08;100.00;99658.78;1031008;28;20301;-79
2023/01/15 02:11:58;;;;;;;5.97;1.35;;;;;;;6.07;100.00;99651.88;1026492;28;20299;-79
2023/01/15 02:12:34;;;;;;;6.80;1.88;;;;;;;6.11;100.00;99647.78;1031812;28;20715;-79
2023/01/15 02:13:17;;;;;;;7.22;1.63;;;;;;;6.10;100.00;99648.81;1031419;28;20298;-79
2023/01/15 02:14:11;;;;;;;10.55;1.73;;;;;;;6.08;100.00;99649.03;1033441;28;20315;-79
2023/01/15 02:15:11;;;;;;;11.18;1.63;;;;;;;6.08;100.00;99664.06;1030606;28;20751;-79
2023/01/15 02:15:46;;;;;;;12.63;1.52;;;;;;;6.01;100.00;99658.81;1031541;28;20352;-79
2023/01/15 02:16:38;;;;;;;8.07;1.42;;;;;;;6.08;100.00;99658.78;1029139;28;20310;-79
2023/01/15 02:17:15;;;;;;;10.23;2.35;;;;;;;6.04;100.00;99660.25;1036804;28;20312;-79
2023/01/15 02:18:05;;;;;;;12.48;1.27;;;;;;;6.04;100.00;99653.13;1034313;28;20305;-79
2023/01/15 02:18:55;;;;;;;10.25;1.58;;;;;;;6.06;100.00;99663.50;1043884;28;20300;-79
2023/01/15 02:19:29;;;;;;;5.93;1.45;;;;;;;6.05;100.00;99659.22;1039288;28;20299;-79
2023/01/15 02:20:16;;;;;;;13.73;1.73;;;;;;;6.07;100.00;99665.09;1044172;28;20059;-79
2023/01/15 02:21:00;;;;;;;7.30;1.63;;;;;;;6.08;100.00;99662.25;1042636;28;20721;-79
2023/01/15 02:21:42;;;;;;;7.47;1.13;;;;;;;6.05;100.00;99660.03;1036344;28;20356;-77
2023/01/15 02:22:37;;;;;;;8.20;1.83;;;;;;;6.06;100.00;99645.78;1039475;28;20304;-77
2023/01/15 02:23:36;;;;;;;4.60;1.48;;;;;;;6.06;100.00;99644.97;1038095;28;20128;-77
2023/01/15 02:24:27;;;;;;;9.07;2.30;;;;;;;6.09;100.00;99645.34;1035917;28;20841;-77
2023/01/15 02:25:37;;;;;;;5.72;0.93;;;;;;;6.06;100.00;99645.78;1034009;28;20867;-77
2023/01/15 02:26:11;;;;;;;7.90;1.52;;;;;;;6.05;100.00;99651.28;1043345;28;20086;-78
2023/01/15 02:27:02;;;;;;;7.43;1.20;;;;;;;6.07;100.00;99646.59;1041075;28;20308;-77
2023/01/15 02:27:37;;;;;;;6.55;1.17;;;;;;;6.07;100.00;99646.59;1035537;28;20323;-77
2023/01/15 02:28:15;;;;;;;4.88;1.02;;;;;;;6.04;100.00;99647.84;1035582;28;20293;-77
2023/01/15 02:28:49;;;;;;;4.65;1.40;;;;;;;6.01;100.00;99652.72;1039946;28;20350;-77
2023/01/15 02:29:30;;;;;;;6.03;1.30;;;;;;;5.99;100.00;99646.84;1043667;28;20735;-77
2023/01/15 02:30:15;;;;;;;9.80;1.88;;;;;;;6.03;100.00;99645.41;1031099;28;20707;-78
2023/01/15 02:31:07;;;;;;;7.57;1.48;;;;;;;6.03;100.00;99645.41;1039832;28;20323;-77
2023/01/15 02:31:42;;;;;;;12.18;1.17;;;;;;;6.01;100.00;99650.09;1032694;28;20101;-77
2023/01/15 02:32:19;;;;;;;5.70;1.60;;;;;;;6.01;100.00;99655.38;1031850;28;20388;-77
2023/01/15 02:32:52;;;;;;;4.97;0.95;;;;;;;5.96;100.00;99640.16;1035837;28;20304;-77
2023/01/15 02:33:30;;;;;;;8.98;1.52;;;;;;;5.97;100.00;99640.97;1039571;28;20296;-77
2023/01/15 02:34:12;;;;;;;9.15;0.95;;;;;;;6.00;100.00;99646.63;1031620;28;20365;-77
2023/01/15 02:34:49;;;;;;;12.13;1.85;;;;;;;5.99;100.00;99638.91;1043919;28;20303;-77
2023/01/15 02:35:44;;;;;;;5.70;1.20;;;;;;;6.05;100.00;99643.38;1039763;28;20820;-77
2023/01/15 02:36:18;;;;;;;12.30;2.25;;;;;;;6.05;100.00;99643.38;1043786;28;20304;-77
2023/01/15 02:36:59;;;;;;;8.50;1.08;;;;;;;6.02;100.00;99647.22;1035513;28;20864;-77
2023/01/15 02:37:33;;;;;;;11.90;1.77;;;;;;;6.01;100.00;99644.78;1031727;28;20329;-77
2023/01/15 02:38:07;;;;;;;4.95;1.23;;;;;;;6.00;100.00;99643.19;1027505;28;20312;-79
2023/01/15 02:38:43;;;;;;;8.70;1.60;;;;;;;5.98;100.00;99650.50;1032884;28;20447;-79
2023/01/15 02:39:17;;;;;;;12.65;2.08;;;;;;;6.00;100.00;99643.19;1029009;28;20329;-79
2023/01/15 02:39:49;;;;;;;18.55;3.78;;;;;;;5.97;100.00;99644.41;1029573;28;20305;-79
2023/01/15 02:40:22;;;;;;;11.57;1.63;;;;;;;5.96;100.00;99637.53;1030965;28;20297;-79
2023/01/15 02:40:57;;;;;;;6.15;2.63;;;;;;;5.95;100.00;99643.84;1030583;28;20313;-79
2023/01/15 02:41:35;;;;;;;11.15;1.55;;;;;;;5.86;100.00;99637.97;1029936;28;20397;-79
2023/01/15 02:42:10;;;;;;;8.73;1.20;;;;;;;5.88;100.00;99643.06;1028366;28;20309;-79
2023/01/15 02:42:48;;;;;;;11.30;1.80;;;;;;;5.87;100.00;99644.88;1024171;28;20307;-79
2023/01/15 02:43:21;;;;;;;11.85;2.88;;;;;;;5.89;100.00;99650.78;1029046;28;20809;-79
2023/01/15 02:43:55;;;;;;;6.75;2.00;;;;;;;5.92;100.00;99659.31;1038017;28;20304;-79
2023/01/15 02:44:31;;;;;;;10.30;1.17;;;;;;;5.92;100.00;99648.75;1037588;28;20395;-79